Terminal Aerodrome Forecast
Issued by NWS

Home | Current Version | Previous Version | Text Only | Print | Product List | Glossary On
Versions: 1 2 3 4 5 6 7 8 9 10 11 12
000
FTUS46 KHNX 230500
TAFVIS
TAF
KVIS 230520Z 2306/2406 33013KT P6SM SCT120
     FM231000 30005KT P6SM FEW200
     FM232000 32010KT P6SM SCT200=

USA.gov is the U.S. government's official web portal to all federal, state and local government web resources and services.